Portage, Maine
Current Conditions -  °F | °C
As of 9:55 PM on Wednesday 26 Nov 2014 (Local Time) from KPQI Reporting Station
Overcast Overcast  
Wind Chill: 17°   Ceiling: 800
Heat Index: 27°   Visibility: 1.5mi
Dew Point: 23°   Wind: 9mph
Humidity: 86%   Direction: 360°N
Pressure: 30.06"   Gusts: NA
Location:  46.76°N, 68.48°W
Report Text: KPQI 270255Z AUTO 36008KT 1 1/2SM OVC008 M03/M05 A3006 RMK AO1 57024
Loading
Personal Weather Stations






























Interactive Weather Map New forecast layout! Learn more

10-Day Weather Forecast

Advertisements
Track Severe Weather on mobile